createdAt,value
2022-08-14T00:01:32.851Z,9.50
2022-08-14T00:04:00.070Z,8.55
2022-08-14T00:06:28.974Z,8.40
2022-08-14T00:08:59.203Z,8.23
2022-08-14T00:11:27.070Z,7.85
2022-08-14T00:13:58.361Z,8.40
2022-08-14T00:16:41.120Z,8.23
2022-08-14T00:19:18.637Z,8.75
2022-08-14T00:21:47.565Z,7.78
2022-08-14T00:24:28.149Z,9.32
2022-08-14T00:26:56.138Z,11.47
2022-08-14T00:29:25.228Z,8.38
2022-08-14T00:31:56.250Z,11.18
2022-08-14T00:34:37.090Z,9.60
2022-08-14T00:37:11.374Z,9.43
2022-08-14T00:39:39.659Z,8.90
2022-08-14T00:42:21.047Z,9.80
2022-08-14T00:44:48.919Z,9.63
2022-08-14T00:47:16.750Z,9.25
2022-08-14T00:49:44.907Z,10.30
2022-08-14T00:52:14.260Z,7.73
2022-08-14T00:54:52.850Z,10.00
2022-08-14T00:57:26.737Z,9.63
2022-08-14T00:59:56.358Z,8.98
2022-08-14T01:02:27.654Z,10.02
2022-08-14T01:05:00.875Z,9.90
2022-08-14T01:07:29.767Z,10.20
2022-08-14T01:10:14.550Z,8.02
2022-08-14T01:12:43.316Z,8.20
2022-08-14T01:15:14.828Z,9.85
2022-08-14T01:18:00.866Z,8.50
2022-08-14T01:20:46.729Z,9.60
2022-08-14T01:23:18.760Z,8.77
2022-08-14T01:25:51.243Z,10.82
2022-08-14T01:28:47.332Z,8.63
2022-08-14T01:31:12.225Z,9.90
2022-08-14T01:35:15.955Z,8.77
2022-08-14T01:36:36.609Z,9.35
2022-08-14T01:39:05.699Z,9.15
2022-08-14T01:41:40.355Z,10.15
2022-08-14T01:44:32.391Z,10.63
2022-08-14T01:47:01.190Z,13.40
2022-08-14T01:49:35.103Z,10.45
2022-08-14T01:52:03.614Z,10.88
2022-08-14T01:54:37.993Z,8.40
2022-08-14T01:57:10.310Z,10.47
2022-08-14T01:59:38.731Z,9.38
2022-08-14T02:02:19.640Z,9.60
2022-08-14T02:04:55.456Z,10.18
2022-08-14T02:07:34.675Z,8.45
2022-08-14T02:10:15.976Z,10.53
2022-08-14T02:12:43.638Z,8.45
2022-08-14T02:15:11.341Z,12.57
2022-08-14T02:17:38.517Z,9.80
2022-08-14T02:20:08.426Z,9.23
2022-08-14T02:22:35.627Z,9.63
2022-08-14T02:25:14.637Z,12.13
2022-08-14T02:28:25.513Z,12.00
2022-08-14T02:30:33.640Z,8.90
2022-08-14T02:33:01.144Z,11.13
2022-08-14T02:35:32.979Z,10.60
2022-08-14T02:38:00.947Z,11.30
2022-08-14T02:40:33.877Z,8.45
2022-08-14T02:43:02.732Z,10.95
2022-08-14T02:45:38.285Z,10.38
2022-08-14T02:49:03.008Z,10.20
2022-08-14T02:51:00.866Z,11.77
2022-08-14T02:53:29.479Z,11.60
2022-08-14T02:56:02.652Z,11.57
2022-08-14T02:58:31.223Z,8.85
2022-08-14T03:00:59.129Z,8.67
2022-08-14T03:03:26.555Z,12.63
2022-08-14T03:05:55.513Z,9.63
2022-08-14T03:08:23.269Z,9.85
2022-08-14T03:10:52.653Z,10.85
2022-08-14T03:13:24.622Z,13.43
2022-08-14T03:15:55.686Z,11.15
2022-08-14T03:18:31.530Z,12.07
2022-08-14T03:21:04.464Z,12.60
2022-08-14T03:23:36.324Z,11.77
2022-08-14T03:26:07.036Z,12.60
2022-08-14T03:28:34.791Z,10.05
2022-08-14T03:31:04.235Z,10.60
2022-08-14T03:33:37.895Z,10.35
2022-08-14T03:37:38.639Z,11.73
2022-08-14T03:39:11.719Z,10.40
2022-08-14T03:41:48.154Z,10.07
2022-08-14T03:45:19.433Z,10.02
2022-08-14T03:47:03.316Z,10.63
2022-08-14T03:49:30.448Z,11.43
2022-08-14T03:52:04.700Z,10.43
2022-08-14T03:54:46.585Z,11.63
2022-08-14T03:57:20.178Z,10.65
2022-08-14T03:59:49.998Z,9.63
2022-08-14T04:02:32.923Z,12.27
2022-08-14T04:05:11.682Z,12.13
2022-08-14T04:07:39.713Z,12.07
2022-08-14T04:10:26.416Z,11.95
2022-08-14T04:12:59.936Z,10.85
2022-08-14T04:15:30.862Z,12.75
2022-08-14T04:17:59.057Z,10.87
2022-08-14T04:20:28.367Z,14.20
2022-08-14T04:22:55.528Z,11.25
2022-08-14T04:25:22.751Z,11.18
2022-08-14T04:28:02.142Z,13.27
2022-08-14T04:30:33.026Z,12.07
2022-08-14T04:33:06.399Z,11.43
2022-08-14T04:35:53.546Z,13.40
2022-08-14T04:38:42.896Z,11.75
2022-08-14T04:41:32.831Z,11.82
2022-08-14T04:44:00.147Z,10.97
2022-08-14T04:46:56.577Z,11.95
2022-08-14T04:49:15.740Z,10.63
2022-08-14T04:51:46.605Z,10.57
2022-08-14T04:54:14.864Z,10.80
2022-08-14T04:56:44.338Z,11.63
2022-08-14T04:59:12.595Z,12.32
2022-08-14T05:01:47.760Z,11.30
2022-08-14T05:04:19.954Z,11.77
2022-08-14T05:06:49.109Z,12.38
2022-08-14T05:09:16.485Z,13.13
2022-08-14T05:11:44.650Z,12.05
2022-08-14T05:14:34.642Z,12.52
2022-08-14T05:17:01.925Z,14.52
2022-08-14T05:19:30.010Z,11.63
2022-08-14T05:22:17.313Z,12.97
2022-08-14T05:24:49.569Z,13.90
2022-08-14T05:27:22.954Z,12.60
2022-08-14T05:29:51.003Z,12.95
2022-08-14T05:32:18.071Z,13.45
2022-08-14T05:34:45.862Z,13.73
2022-08-14T05:37:15.366Z,11.57
2022-08-14T05:39:43.366Z,12.52
2022-08-14T05:42:22.095Z,12.98
2022-08-14T05:44:56.630Z,11.85
2022-08-14T05:47:24.190Z,10.80
2022-08-14T05:49:57.531Z,11.32
2022-08-14T05:52:38.672Z,12.38
2022-08-14T05:55:11.313Z,10.98
2022-08-14T05:58:08.340Z,11.65
2022-08-14T06:00:39.107Z,12.43
2022-08-14T06:03:08.389Z,11.38
2022-08-14T06:05:38.438Z,13.40
2022-08-14T06:08:08.799Z,11.15
2022-08-14T06:10:54.382Z,12.88
2022-08-14T06:13:21.569Z,11.47
2022-08-14T06:15:49.232Z,12.38
2022-08-14T06:18:17.627Z,10.85
2022-08-14T06:20:45.223Z,10.45
2022-08-14T06:23:13.432Z,12.48
2022-08-14T06:25:41.726Z,12.70
2022-08-14T06:28:27.535Z,11.35
2022-08-14T06:30:55.523Z,11.13
2022-08-14T06:33:22.727Z,10.93
2022-08-14T06:35:57.844Z,10.15
2022-08-14T06:38:25.079Z,10.57
2022-08-14T06:40:53.306Z,13.23
2022-08-14T06:43:22.925Z,11.02
2022-08-14T06:45:54.284Z,10.50
2022-08-14T06:48:23.660Z,9.57
2022-08-14T06:50:51.447Z,10.43
2022-08-14T06:53:19.675Z,11.80
2022-08-14T06:55:58.049Z,10.43
2022-08-14T06:58:29.186Z,11.02
2022-08-14T07:01:15.369Z,11.73
2022-08-14T07:04:01.696Z,12.50
2022-08-14T07:06:46.394Z,11.52
2022-08-14T07:09:19.482Z,10.70
2022-08-14T07:11:49.615Z,11.35
2022-08-14T07:14:16.678Z,10.95
2022-08-14T07:16:43.746Z,10.93
2022-08-14T07:19:11.798Z,10.40
2022-08-14T07:21:39.453Z,10.65
2022-08-14T07:24:06.751Z,11.15
2022-08-14T07:26:38.759Z,13.70
2022-08-14T07:29:08.197Z,11.50
2022-08-14T07:31:35.267Z,10.18
2022-08-14T07:34:03.994Z,9.80
2022-08-14T07:36:31.394Z,13.15
2022-08-14T07:39:02.991Z,11.77
2022-08-14T07:41:33.989Z,9.13
2022-08-14T07:44:29.377Z,9.70
2022-08-14T07:46:50.097Z,9.75
2022-08-14T07:49:17.720Z,9.93
2022-08-14T07:51:45.347Z,9.02
2022-08-14T07:54:16.519Z,10.40
2022-08-14T07:56:53.934Z,9.35
2022-08-14T07:59:42.269Z,10.45
2022-08-14T08:02:17.404Z,9.63
2022-08-14T08:04:48.642Z,9.90
2022-08-14T08:07:16.747Z,10.77
2022-08-14T08:09:46.013Z,9.88
2022-08-14T08:12:15.761Z,9.45
2022-08-14T08:14:56.886Z,9.23
2022-08-14T08:17:34.711Z,10.23
2022-08-14T08:20:06.596Z,8.70
2022-08-14T08:22:37.789Z,11.82
2022-08-14T08:25:13.611Z,9.75
2022-08-14T08:27:44.852Z,10.27
2022-08-14T08:30:12.622Z,11.77
2022-08-14T08:32:43.688Z,11.03
2022-08-14T08:35:11.771Z,10.45
2022-08-14T08:37:40.303Z,8.38
2022-08-14T08:40:11.099Z,9.90
2022-08-14T08:42:53.212Z,11.10
2022-08-14T08:45:23.692Z,10.67
2022-08-14T08:47:55.098Z,9.00
2022-08-14T08:50:31.486Z,10.32
2022-08-14T08:52:59.111Z,9.65
2022-08-14T08:55:28.006Z,10.43
2022-08-14T08:57:59.793Z,8.87
2022-08-14T09:00:33.849Z,9.00
2022-08-14T09:03:03.316Z,9.40
2022-08-14T09:05:31.961Z,12.23
2022-08-14T09:08:30.979Z,10.80
2022-08-14T09:11:00.553Z,9.17
2022-08-14T09:13:27.848Z,9.50
2022-08-14T09:15:57.943Z,10.30
2022-08-14T09:18:27.132Z,8.80
2022-08-14T09:20:58.596Z,8.75
2022-08-14T09:23:34.452Z,10.37
2022-08-14T09:26:05.091Z,9.73
2022-08-14T09:28:48.455Z,9.85
2022-08-14T09:31:18.163Z,10.18
2022-08-14T09:33:56.585Z,9.23
2022-08-14T09:36:36.138Z,9.93
2022-08-14T09:39:21.390Z,9.27
2022-08-14T09:42:21.190Z,14.18
2022-08-14T09:45:07.845Z,9.40
2022-08-14T09:47:46.282Z,9.10
2022-08-14T09:50:30.490Z,8.60
2022-08-14T09:53:05.669Z,9.35
2022-08-14T09:55:44.981Z,9.98
2022-08-14T09:58:15.063Z,9.32
2022-08-14T10:00:50.090Z,10.02
2022-08-14T10:03:33.306Z,9.00
2022-08-14T10:06:08.712Z,9.73
2022-08-14T10:08:44.393Z,8.85
2022-08-14T10:11:17.849Z,10.02
2022-08-14T10:13:53.116Z,7.72
2022-08-14T10:16:27.617Z,7.90
2022-08-14T10:19:09.573Z,8.05
2022-08-14T10:21:38.664Z,12.95
2022-08-14T10:24:36.169Z,10.02
2022-08-14T10:27:04.219Z,9.25
2022-08-14T10:29:40.873Z,9.20
2022-08-14T10:32:17.945Z,9.57
2022-08-14T10:35:13.609Z,9.15
2022-08-14T10:37:49.401Z,8.20
2022-08-14T10:40:43.544Z,9.10
2022-08-14T10:43:19.169Z,8.23
2022-08-14T10:45:59.716Z,10.10
2022-08-14T10:48:38.296Z,8.27
2022-08-14T10:51:09.576Z,9.15
2022-08-14T10:53:39.337Z,9.95
2022-08-14T10:56:21.402Z,7.47
2022-08-14T10:59:04.202Z,9.18
2022-08-14T11:01:32.606Z,8.73
2022-08-14T11:04:20.303Z,7.97
2022-08-14T11:06:56.683Z,9.90
2022-08-14T11:09:26.559Z,7.93
2022-08-14T11:12:34.983Z,8.85
2022-08-14T11:15:01.779Z,7.85
2022-08-14T11:17:31.734Z,7.47
2022-08-14T11:20:00.871Z,7.93
2022-08-14T11:22:52.616Z,8.50
2022-08-14T11:25:18.515Z,7.20
2022-08-14T11:27:46.284Z,7.05
2022-08-14T11:30:50.459Z,8.73
2022-08-14T11:33:07.637Z,6.75
2022-08-14T11:35:43.967Z,6.50
2022-08-14T11:38:17.131Z,6.55
2022-08-14T11:40:47.140Z,6.57
2022-08-14T11:43:15.310Z,7.10
2022-08-14T11:45:45.788Z,6.07
2022-08-14T11:49:02.387Z,6.03
2022-08-14T11:51:13.277Z,6.78
2022-08-14T11:53:43.426Z,6.85
2022-08-14T11:56:12.797Z,6.65
2022-08-14T11:58:40.586Z,7.30
2022-08-14T12:01:10.121Z,6.57
2022-08-14T12:03:51.894Z,8.95
2022-08-14T12:06:28.589Z,9.48
2022-08-14T12:09:03.037Z,8.07
2022-08-14T12:11:43.328Z,7.72
2022-08-14T12:14:29.051Z,6.93
2022-08-14T12:17:01.955Z,7.60
2022-08-14T12:19:33.696Z,7.40
2022-08-14T12:22:02.179Z,6.03
2022-08-14T12:24:36.657Z,6.50
2022-08-14T12:27:07.298Z,7.13
2022-08-14T12:29:34.858Z,6.10
2022-08-14T12:32:08.859Z,7.78
2022-08-14T12:34:37.356Z,6.65
2022-08-14T12:37:05.662Z,12.98
2022-08-14T12:39:39.908Z,6.83
2022-08-14T12:42:08.158Z,6.68
2022-08-14T12:44:37.281Z,6.93
2022-08-14T12:47:21.080Z,7.07
2022-08-14T12:49:52.834Z,8.15
2022-08-14T12:52:41.535Z,7.40
2022-08-14T12:55:21.061Z,8.18
2022-08-14T12:57:49.277Z,6.93
2022-08-14T13:00:23.801Z,6.40
2022-08-14T13:02:54.933Z,7.88
2022-08-14T13:05:32.670Z,7.23
2022-08-14T13:08:02.513Z,6.88
2022-08-14T13:10:47.757Z,6.85
2022-08-14T13:13:20.267Z,8.30
2022-08-14T13:15:57.215Z,6.57
2022-08-14T13:18:27.853Z,6.73
2022-08-14T13:20:57.839Z,8.05
2022-08-14T13:23:32.283Z,6.10
2022-08-14T13:25:59.867Z,6.80
2022-08-14T13:28:33.103Z,7.85
2022-08-14T13:31:04.420Z,6.97
2022-08-14T13:33:40.813Z,6.30
2022-08-14T13:36:08.779Z,7.15
2022-08-14T13:38:36.006Z,7.40
2022-08-14T13:41:03.925Z,7.32
2022-08-14T13:43:36.438Z,6.50
2022-08-14T13:46:04.090Z,7.45
2022-08-14T13:48:33.345Z,7.30
2022-08-14T13:51:05.330Z,7.05
2022-08-14T13:53:52.640Z,7.45
2022-08-14T13:56:36.885Z,6.67
2022-08-14T13:59:04.325Z,7.22
2022-08-14T14:01:38.312Z,7.60
2022-08-14T14:04:18.932Z,7.72
2022-08-14T14:06:47.797Z,9.57
2022-08-14T14:09:16.394Z,6.97
2022-08-14T14:11:44.342Z,8.32
2022-08-14T14:14:44.503Z,8.27
2022-08-14T14:16:59.262Z,7.82
2022-08-14T14:19:29.491Z,7.28
2022-08-14T14:21:57.147Z,7.17
2022-08-14T14:24:24.807Z,7.55
2022-08-14T14:27:23.720Z,7.20
2022-08-14T14:29:51.518Z,7.05
2022-08-14T14:32:27.086Z,7.55
2022-08-14T14:35:01.511Z,8.13
2022-08-14T14:37:28.939Z,7.35
2022-08-14T14:40:54.328Z,7.38
2022-08-14T14:42:53.285Z,7.50
2022-08-14T14:45:23.822Z,7.72
2022-08-14T14:47:59.360Z,7.80
2022-08-14T14:50:26.600Z,7.97
2022-08-14T14:53:13.147Z,7.78
2022-08-14T14:55:43.035Z,7.80
2022-08-14T14:58:26.822Z,8.13
2022-08-14T15:01:01.484Z,7.77
2022-08-14T15:03:30.205Z,7.45
2022-08-14T15:05:57.929Z,6.97
2022-08-14T15:08:26.738Z,7.80
2022-08-14T15:11:13.737Z,6.90
2022-08-14T15:13:43.349Z,8.00
2022-08-14T15:16:21.469Z,7.35
2022-08-14T15:18:49.016Z,7.50
2022-08-14T15:21:16.430Z,7.53
2022-08-14T15:23:44.526Z,6.97
2022-08-14T15:26:24.355Z,7.53
2022-08-14T15:29:03.273Z,7.10
2022-08-14T15:31:32.751Z,6.97
2022-08-14T15:34:44.603Z,7.70
2022-08-14T15:36:58.315Z,7.43
2022-08-14T15:39:26.091Z,7.77
2022-08-14T15:42:00.149Z,7.60
2022-08-14T15:44:31.365Z,7.32
2022-08-14T15:47:01.574Z,7.50
2022-08-14T15:49:33.342Z,7.75
2022-08-14T15:52:04.079Z,7.27
2022-08-14T15:54:32.312Z,10.05
2022-08-14T15:57:00.767Z,7.90
2022-08-14T15:59:48.421Z,8.63
2022-08-14T16:02:16.879Z,7.25
2022-08-14T16:04:46.109Z,7.97
2022-08-14T16:07:18.361Z,7.43
2022-08-14T16:10:01.312Z,8.88
2022-08-14T16:12:41.725Z,7.50
2022-08-14T16:15:13.865Z,9.13
2022-08-14T16:17:44.226Z,7.77
2022-08-14T16:20:12.510Z,7.50
2022-08-14T16:23:00.985Z,8.30
2022-08-14T16:25:34.262Z,8.80
2022-08-14T16:28:03.364Z,9.20
2022-08-14T16:30:34.312Z,7.93
2022-08-14T16:33:06.029Z,7.97
2022-08-14T16:35:42.637Z,7.47
2022-08-14T16:38:47.949Z,8.60
2022-08-14T16:41:18.043Z,7.90
2022-08-14T16:43:50.127Z,9.23
2022-08-14T16:46:22.229Z,7.95
2022-08-14T16:48:57.832Z,7.78
2022-08-14T16:51:26.112Z,8.05
2022-08-14T16:53:55.307Z,8.40
2022-08-14T16:56:24.141Z,7.50
2022-08-14T16:59:05.212Z,8.07
2022-08-14T17:01:32.565Z,8.25
2022-08-14T17:04:06.406Z,7.60
2022-08-14T17:06:46.666Z,10.10
2022-08-14T17:09:32.338Z,8.10
2022-08-14T17:12:33.536Z,7.53
2022-08-14T17:15:10.140Z,8.05
2022-08-14T17:17:41.054Z,8.00
2022-08-14T17:20:53.925Z,7.78
2022-08-14T17:23:11.079Z,7.97
2022-08-14T17:25:38.403Z,8.15
2022-08-14T17:28:52.495Z,8.90
2022-08-14T17:31:06.886Z,8.80
2022-08-14T17:33:40.664Z,7.97
2022-08-14T17:36:21.650Z,8.47
2022-08-14T17:39:06.340Z,7.93
2022-08-14T17:41:37.494Z,8.02
2022-08-14T17:44:12.471Z,7.85
2022-08-14T17:46:47.999Z,8.13
2022-08-14T17:49:18.465Z,7.50
2022-08-14T17:52:07.885Z,8.32
2022-08-14T17:54:47.427Z,7.68
2022-08-14T17:57:24.397Z,8.82
2022-08-14T17:59:56.322Z,8.70
2022-08-14T18:02:31.367Z,8.33
2022-08-14T18:05:00.044Z,8.98
2022-08-14T18:08:00.120Z,11.77
2022-08-14T18:10:51.847Z,9.18
2022-08-14T18:13:10.552Z,8.75
2022-08-14T18:15:39.246Z,8.20
2022-08-14T18:18:10.935Z,8.23
2022-08-14T18:21:23.758Z,7.72
2022-08-14T18:23:28.349Z,8.40
2022-08-14T18:25:56.958Z,8.88
2022-08-14T18:28:51.061Z,8.67
2022-08-14T18:31:42.024Z,8.95
2022-08-14T18:34:13.796Z,10.02
2022-08-14T18:37:11.059Z,9.57
2022-08-14T18:40:03.556Z,8.77
2022-08-14T18:42:34.769Z,8.80
2022-08-14T18:45:12.932Z,8.40
2022-08-14T18:50:32.295Z,8.63
2022-08-14T18:53:07.273Z,8.02
2022-08-14T18:55:34.438Z,10.43
2022-08-14T18:58:01.559Z,8.45
2022-08-14T19:00:33.829Z,8.50
2022-08-14T19:03:06.066Z,8.63
2022-08-14T19:05:47.442Z,8.07
2022-08-14T19:08:26.366Z,8.43
2022-08-14T19:11:05.037Z,9.70
2022-08-14T19:13:48.142Z,8.88
2022-08-14T19:16:22.973Z,8.75
2022-08-14T19:19:00.109Z,8.85
2022-08-14T19:21:29.847Z,10.43
2022-08-14T19:24:27.888Z,8.80
2022-08-14T19:27:16.684Z,9.95
2022-08-14T19:29:47.862Z,8.82
2022-08-14T19:32:36.572Z,8.57
2022-08-14T19:35:17.185Z,10.07
2022-08-14T19:37:48.709Z,9.70
2022-08-14T19:40:39.095Z,8.82
2022-08-14T19:43:09.169Z,10.57
2022-08-14T19:45:37.459Z,8.55
2022-08-14T19:48:11.333Z,11.00
2022-08-14T19:50:40.609Z,8.90
2022-08-14T19:53:11.075Z,8.27
2022-08-14T19:55:45.678Z,9.52
2022-08-14T19:58:13.007Z,8.57
2022-08-14T20:00:51.666Z,10.17
2022-08-14T20:03:23.899Z,9.57
2022-08-14T20:06:00.373Z,9.02
2022-08-14T20:11:00.193Z,14.57
2022-08-14T20:12:01.659Z,7.90
2022-08-14T20:14:36.524Z,10.03
2022-08-14T20:17:07.016Z,8.77
2022-08-14T20:19:37.670Z,10.02
2022-08-14T20:22:35.337Z,8.70
2022-08-14T20:24:56.859Z,9.80
2022-08-14T20:27:33.533Z,11.23
2022-08-14T20:30:33.917Z,10.52
2022-08-14T20:33:11.553Z,10.27
2022-08-14T20:35:43.734Z,8.40
2022-08-14T20:38:31.106Z,10.93
2022-08-14T20:41:06.507Z,10.27
2022-08-14T20:43:54.553Z,9.45
2022-08-14T20:46:29.969Z,9.07
2022-08-14T20:48:57.374Z,11.55
2022-08-14T20:51:36.749Z,10.73
2022-08-14T20:54:05.155Z,10.00
2022-08-14T20:56:34.359Z,9.15
2022-08-14T20:59:15.431Z,11.73
2022-08-14T21:01:43.302Z,8.90
2022-08-14T21:04:24.847Z,10.18
2022-08-14T21:07:24.707Z,8.80
2022-08-14T21:10:06.328Z,9.63
2022-08-14T21:12:34.907Z,9.05
2022-08-14T21:15:04.094Z,10.98
2022-08-14T21:17:37.489Z,9.07
2022-08-14T21:20:26.382Z,8.57
2022-08-14T21:22:53.792Z,9.85
2022-08-14T21:25:23.743Z,8.80
2022-08-14T21:27:57.096Z,10.15
2022-08-14T21:30:41.774Z,9.40
2022-08-14T21:33:12.363Z,9.43
2022-08-14T21:35:46.688Z,10.75
2022-08-14T21:38:18.011Z,10.70
2022-08-14T21:40:47.430Z,10.38
2022-08-14T21:43:17.286Z,8.68
2022-08-14T21:45:46.000Z,9.37
2022-08-14T21:48:21.290Z,10.43
2022-08-14T21:51:00.270Z,10.88
2022-08-14T21:53:34.263Z,10.38
2022-08-14T21:56:03.255Z,9.57
2022-08-14T21:58:54.106Z,9.80
2022-08-14T22:01:20.266Z,10.45
2022-08-14T22:03:54.687Z,10.98
2022-08-14T22:06:29.057Z,9.05
2022-08-14T22:08:57.882Z,10.10
2022-08-14T22:11:25.561Z,10.17
2022-08-14T22:13:55.864Z,11.35
2022-08-14T22:17:01.715Z,10.43
2022-08-14T22:19:13.729Z,10.02
2022-08-14T22:21:44.083Z,9.90
2022-08-14T22:24:12.181Z,10.57
2022-08-14T22:27:01.160Z,10.02
2022-08-14T22:29:29.027Z,11.52
2022-08-14T22:31:56.218Z,9.43
2022-08-14T22:34:23.800Z,10.55
2022-08-14T22:36:51.194Z,9.47
2022-08-14T22:40:17.536Z,12.07
2022-08-14T22:42:21.200Z,10.25
2022-08-14T22:44:49.791Z,8.45
2022-08-14T22:47:16.858Z,9.40
2022-08-14T22:50:30.303Z,10.53
2022-08-14T22:52:32.655Z,10.27
2022-08-14T22:55:01.065Z,11.23
2022-08-14T22:57:37.879Z,9.60
2022-08-14T23:00:11.953Z,9.63
2022-08-14T23:02:41.694Z,9.43
2022-08-14T23:05:12.860Z,10.70
2022-08-14T23:08:56.376Z,10.70
2022-08-14T23:10:31.882Z,10.10
2022-08-14T23:13:01.946Z,8.82
2022-08-14T23:15:30.324Z,10.27
2022-08-14T23:17:57.686Z,9.63
2022-08-14T23:20:29.379Z,9.82
2022-08-14T23:22:57.428Z,9.95
2022-08-14T23:25:53.184Z,9.63
2022-08-14T23:28:34.256Z,10.33
2022-08-14T23:31:05.758Z,9.35
2022-08-14T23:33:34.539Z,8.80
2022-08-14T23:36:04.507Z,9.32
2022-08-14T23:38:51.738Z,9.82
2022-08-14T23:41:21.133Z,9.10
2022-08-14T23:43:49.695Z,12.82
2022-08-14T23:46:19.034Z,9.57
2022-08-14T23:48:47.053Z,8.80
2022-08-14T23:51:15.422Z,9.30
2022-08-14T23:53:48.035Z,10.17
2022-08-14T23:56:30.438Z,11.05
2022-08-14T23:59:00.388Z,10.30
